Judith Gap, Montana
Current Conditions -  °F | °C
As of 12:54 AM on Friday 31 Oct 2014 (Local Time) from KLWT Reporting Station
Clear Clear  
Wind Chill: 37°   Ceiling: Unl
Heat Index: 42°   Visibility: 10mi
Dew Point: 32°   Wind: 8mph
Humidity: 67%   Direction: 100°E
Pressure: 30.09"   Gusts: NA
Location:  46.68°N, 109.75°W
Report Text: KLWT 310654Z AUTO 10007KT 10SM CLR 06/00 A3009 RMK AO2 SLP185 T00560000 401501011
Loading
Personal Weather Stations






























Interactive Weather Map
Tropical Storm Tracking
New forecast layout! Learn more

10-Day Weather Forecast

Advertisements
Track Severe Weather on mobile